sensor_id;sensor_type;location;lat;lon;timestamp;P1;durP1;ratioP1;P2;durP2;ratioP2
74335;SDS011;62755;-33.398;-70.572;2023-04-12T00:02:03;13.82;;;2.33;;
74335;SDS011;62755;-33.398;-70.572;2023-04-12T00:04:53;11.98;;;2.88;;
74335;SDS011;62755;-33.398;-70.572;2023-04-12T00:07:44;15.15;;;3.55;;
74335;SDS011;62755;-33.398;-70.572;2023-04-12T00:10:34;15.63;;;4.10;;
74335;SDS011;62755;-33.398;-70.572;2023-04-12T00:13:03;19.80;;;4.10;;
74335;SDS011;62755;-33.398;-70.572;2023-04-12T00:15:53;23.02;;;4.95;;
74335;SDS011;62755;-33.398;-70.572;2023-04-12T00:18:43;15.82;;;4.70;;
74335;SDS011;62755;-33.398;-70.572;2023-04-12T00:21:32;10.25;;;4.70;;
74335;SDS011;62755;-33.398;-70.572;2023-04-12T00:24:24;17.60;;;4.78;;
74335;SDS011;62755;-33.398;-70.572;2023-04-12T00:27:14;17.95;;;4.38;;
74335;SDS011;62755;-33.398;-70.572;2023-04-12T00:30:04;19.80;;;4.38;;
74335;SDS011;62755;-33.398;-70.572;2023-04-12T00:32:54;31.70;;;7.18;;
74335;SDS011;62755;-33.398;-70.572;2023-04-12T00:35:44;23.02;;;6.15;;
74335;SDS011;62755;-33.398;-70.572;2023-04-12T00:38:34;30.60;;;11.30;;
74335;SDS011;62755;-33.398;-70.572;2023-04-12T00:41:25;94.25;;;63.28;;
74335;SDS011;62755;-33.398;-70.572;2023-04-12T00:44:15;24.35;;;7.40;;
74335;SDS011;62755;-33.398;-70.572;2023-04-12T00:47:05;32.03;;;10.50;;
74335;SDS011;62755;-33.398;-70.572;2023-04-12T00:49:55;42.03;;;15.13;;
74335;SDS011;62755;-33.398;-70.572;2023-04-12T00:52:46;29.60;;;11.25;;
74335;SDS011;62755;-33.398;-70.572;2023-04-12T00:55:36;32.00;;;14.43;;
74335;SDS011;62755;-33.398;-70.572;2023-04-12T00:58:29;27.33;;;12.25;;
74335;SDS011;62755;-33.398;-70.572;2023-04-12T01:01:18;15.40;;;4.72;;
74335;SDS011;62755;-33.398;-70.572;2023-04-12T01:04:08;25.42;;;4.40;;
74335;SDS011;62755;-33.398;-70.572;2023-04-12T01:07:02;17.50;;;3.72;;
74335;SDS011;62755;-33.398;-70.572;2023-04-12T01:10:01;12.90;;;3.53;;
74335;SDS011;62755;-33.398;-70.572;2023-04-12T01:12:59;21.70;;;4.43;;
74335;SDS011;62755;-33.398;-70.572;2023-04-12T01:16:02;17.95;;;4.63;;
74335;SDS011;62755;-33.398;-70.572;2023-04-12T01:18:56;15.93;;;6.32;;
74335;SDS011;62755;-33.398;-70.572;2023-04-12T01:21:52;19.40;;;5.20;;
74335;SDS011;62755;-33.398;-70.572;2023-04-12T01:24:54;24.98;;;5.75;;
74335;SDS011;62755;-33.398;-70.572;2023-04-12T01:28:00;30.55;;;9.13;;
74335;SDS011;62755;-33.398;-70.572;2023-04-12T01:30:51;18.45;;;5.70;;
74335;SDS011;62755;-33.398;-70.572;2023-04-12T01:33:42;25.02;;;10.20;;
74335;SDS011;62755;-33.398;-70.572;2023-04-12T01:36:33;22.83;;;8.00;;
74335;SDS011;62755;-33.398;-70.572;2023-04-12T01:39:24;25.98;;;5.00;;
74335;SDS011;62755;-33.398;-70.572;2023-04-12T01:42:17;15.70;;;4.35;;
74335;SDS011;62755;-33.398;-70.572;2023-04-12T01:45:09;24.27;;;6.30;;
74335;SDS011;62755;-33.398;-70.572;2023-04-12T01:47:59;25.23;;;5.95;;
74335;SDS011;62755;-33.398;-70.572;2023-04-12T01:50:50;60.90;;;28.80;;
74335;SDS011;62755;-33.398;-70.572;2023-04-12T01:53:47;39.83;;;20.17;;
74335;SDS011;62755;-33.398;-70.572;2023-04-12T01:56:42;45.10;;;21.55;;
74335;SDS011;62755;-33.398;-70.572;2023-04-12T01:59:35;37.30;;;16.52;;
74335;SDS011;62755;-33.398;-70.572;2023-04-12T02:02:30;23.63;;;16.10;;
74335;SDS011;62755;-33.398;-70.572;2023-04-12T02:05:20;31.33;;;19.20;;
74335;SDS011;62755;-33.398;-70.572;2023-04-12T02:08:10;25.33;;;11.88;;
74335;SDS011;62755;-33.398;-70.572;2023-04-12T02:11:01;21.95;;;16.70;;
74335;SDS011;62755;-33.398;-70.572;2023-04-12T02:13:56;18.08;;;7.68;;
74335;SDS011;62755;-33.398;-70.572;2023-04-12T02:16:45;14.75;;;5.00;;
74335;SDS011;62755;-33.398;-70.572;2023-04-12T02:19:37;16.27;;;4.80;;
74335;SDS011;62755;-33.398;-70.572;2023-04-12T02:22:26;13.77;;;4.20;;
74335;SDS011;62755;-33.398;-70.572;2023-04-12T02:25:16;19.38;;;4.53;;
74335;SDS011;62755;-33.398;-70.572;2023-04-12T02:28:06;13.25;;;4.05;;
74335;SDS011;62755;-33.398;-70.572;2023-04-12T02:30:56;12.20;;;4.00;;
74335;SDS011;62755;-33.398;-70.572;2023-04-12T02:33:46;12.82;;;4.07;;
74335;SDS011;62755;-33.398;-70.572;2023-04-12T02:36:37;14.10;;;5.15;;
74335;SDS011;62755;-33.398;-70.572;2023-04-12T02:39:26;27.17;;;6.30;;
74335;SDS011;62755;-33.398;-70.572;2023-04-12T02:42:16;25.63;;;6.00;;
74335;SDS011;62755;-33.398;-70.572;2023-04-12T02:45:07;20.90;;;5.65;;
74335;SDS011;62755;-33.398;-70.572;2023-04-12T02:47:58;22.90;;;5.95;;
74335;SDS011;62755;-33.398;-70.572;2023-04-12T02:50:48;22.17;;;5.30;;
74335;SDS011;62755;-33.398;-70.572;2023-04-12T02:53:39;18.48;;;4.78;;
74335;SDS011;62755;-33.398;-70.572;2023-04-12T02:56:29;18.98;;;6.05;;
74335;SDS011;62755;-33.398;-70.572;2023-04-12T02:59:18;22.48;;;6.60;;
74335;SDS011;62755;-33.398;-70.572;2023-04-12T03:02:10;33.97;;;19.45;;
74335;SDS011;62755;-33.398;-70.572;2023-04-12T03:04:59;27.45;;;6.95;;
74335;SDS011;62755;-33.398;-70.572;2023-04-12T03:07:49;62.05;;;32.47;;
74335;SDS011;62755;-33.398;-70.572;2023-04-12T03:10:41;35.90;;;15.20;;
74335;SDS011;62755;-33.398;-70.572;2023-04-12T03:13:30;38.60;;;16.95;;
74335;SDS011;62755;-33.398;-70.572;2023-04-12T03:16:20;27.88;;;6.35;;
74335;SDS011;62755;-33.398;-70.572;2023-04-12T03:19:10;16.33;;;5.85;;
74335;SDS011;62755;-33.398;-70.572;2023-04-12T03:22:00;21.42;;;5.78;;
74335;SDS011;62755;-33.398;-70.572;2023-04-12T03:24:50;21.67;;;4.55;;
74335;SDS011;62755;-33.398;-70.572;2023-04-12T03:27:42;45.30;;;19.85;;
74335;SDS011;62755;-33.398;-70.572;2023-04-12T03:30:31;25.75;;;6.05;;
74335;SDS011;62755;-33.398;-70.572;2023-04-12T03:33:21;38.78;;;14.15;;
74335;SDS011;62755;-33.398;-70.572;2023-04-12T03:36:11;61.67;;;27.38;;
74335;SDS011;62755;-33.398;-70.572;2023-04-12T03:39:00;28.40;;;6.55;;
74335;SDS011;62755;-33.398;-70.572;2023-04-12T03:41:50;41.33;;;18.05;;
74335;SDS011;62755;-33.398;-70.572;2023-04-12T03:44:41;22.02;;;8.20;;
74335;SDS011;62755;-33.398;-70.572;2023-04-12T03:47:30;24.73;;;5.70;;
74335;SDS011;62755;-33.398;-70.572;2023-04-12T03:50:20;23.42;;;5.97;;
74335;SDS011;62755;-33.398;-70.572;2023-04-12T03:53:10;27.27;;;8.57;;
74335;SDS011;62755;-33.398;-70.572;2023-04-12T03:56:00;22.88;;;5.18;;
74335;SDS011;62755;-33.398;-70.572;2023-04-12T03:58:49;20.55;;;6.05;;
74335;SDS011;62755;-33.398;-70.572;2023-04-12T04:01:41;22.27;;;5.88;;
74335;SDS011;62755;-33.398;-70.572;2023-04-12T04:04:31;22.50;;;5.38;;
74335;SDS011;62755;-33.398;-70.572;2023-04-12T04:07:22;15.43;;;4.55;;
74335;SDS011;62755;-33.398;-70.572;2023-04-12T04:10:12;18.95;;;4.65;;
74335;SDS011;62755;-33.398;-70.572;2023-04-12T04:13:01;29.65;;;6.70;;
74335;SDS011;62755;-33.398;-70.572;2023-04-12T04:15:53;76.47;;;37.42;;
74335;SDS011;62755;-33.398;-70.572;2023-04-12T04:21:45;71.60;;;44.50;;
74335;SDS011;62755;-33.398;-70.572;2023-04-12T04:24:34;52.72;;;22.42;;
74335;SDS011;62755;-33.398;-70.572;2023-04-12T04:27:24;13.75;;;4.25;;
74335;SDS011;62755;-33.398;-70.572;2023-04-12T04:30:15;18.80;;;4.15;;
74335;SDS011;62755;-33.398;-70.572;2023-04-12T04:33:08;12.68;;;2.88;;
74335;SDS011;62755;-33.398;-70.572;2023-04-12T04:35:59;18.02;;;4.65;;
74335;SDS011;62755;-33.398;-70.572;2023-04-12T04:38:49;14.02;;;3.75;;
74335;SDS011;62755;-33.398;-70.572;2023-04-12T04:41:38;11.38;;;3.58;;
74335;SDS011;62755;-33.398;-70.572;2023-04-12T04:44:29;13.70;;;3.47;;
74335;SDS011;62755;-33.398;-70.572;2023-04-12T04:47:20;14.52;;;3.25;;
74335;SDS011;62755;-33.398;-70.572;2023-04-12T04:50:10;13.20;;;3.42;;
74335;SDS011;62755;-33.398;-70.572;2023-04-12T04:53:01;10.40;;;3.10;;
74335;SDS011;62755;-33.398;-70.572;2023-04-12T04:55:56;12.90;;;2.88;;
74335;SDS011;62755;-33.398;-70.572;2023-04-12T04:58:46;15.27;;;2.65;;
74335;SDS011;62755;-33.398;-70.572;2023-04-12T05:01:35;8.90;;;2.97;;
74335;SDS011;62755;-33.398;-70.572;2023-04-12T05:04:25;11.15;;;2.80;;
74335;SDS011;62755;-33.398;-70.572;2023-04-12T05:07:15;6.85;;;2.58;;
74335;SDS011;62755;-33.398;-70.572;2023-04-12T05:10:07;11.85;;;2.33;;
74335;SDS011;62755;-33.398;-70.572;2023-04-12T05:12:57;8.23;;;2.30;;
74335;SDS011;62755;-33.398;-70.572;2023-04-12T05:15:46;6.75;;;2.45;;
74335;SDS011;62755;-33.398;-70.572;2023-04-12T05:18:36;6.28;;;2.13;;
74335;SDS011;62755;-33.398;-70.572;2023-04-12T05:21:25;8.98;;;2.00;;
74335;SDS011;62755;-33.398;-70.572;2023-04-12T05:24:15;7.43;;;2.13;;
74335;SDS011;62755;-33.398;-70.572;2023-04-12T05:27:07;8.77;;;2.42;;
74335;SDS011;62755;-33.398;-70.572;2023-04-12T05:29:56;11.30;;;2.15;;
74335;SDS011;62755;-33.398;-70.572;2023-04-12T05:32:46;10.70;;;2.20;;
74335;SDS011;62755;-33.398;-70.572;2023-04-12T05:35:35;6.10;;;2.55;;
74335;SDS011;62755;-33.398;-70.572;2023-04-12T05:38:25;9.73;;;2.17;;
74335;SDS011;62755;-33.398;-70.572;2023-04-12T05:41:14;7.75;;;2.50;;
74335;SDS011;62755;-33.398;-70.572;2023-04-12T05:44:05;15.27;;;2.38;;
74335;SDS011;62755;-33.398;-70.572;2023-04-12T05:46:55;13.35;;;2.38;;
74335;SDS011;62755;-33.398;-70.572;2023-04-12T05:49:44;5.18;;;2.35;;
74335;SDS011;62755;-33.398;-70.572;2023-04-12T05:52:35;9.73;;;2.42;;
74335;SDS011;62755;-33.398;-70.572;2023-04-12T05:55:24;15.68;;;2.55;;
74335;SDS011;62755;-33.398;-70.572;2023-04-12T05:58:14;6.88;;;2.30;;
74335;SDS011;62755;-33.398;-70.572;2023-04-12T06:01:06;12.35;;;2.58;;
74335;SDS011;62755;-33.398;-70.572;2023-04-12T06:03:56;7.18;;;2.40;;
74335;SDS011;62755;-33.398;-70.572;2023-04-12T06:06:47;13.27;;;2.60;;
74335;SDS011;62755;-33.398;-70.572;2023-04-12T06:09:36;12.43;;;2.63;;
74335;SDS011;62755;-33.398;-70.572;2023-04-12T06:12:27;12.32;;;2.63;;
74335;SDS011;62755;-33.398;-70.572;2023-04-12T06:15:16;11.02;;;2.67;;
74335;SDS011;62755;-33.398;-70.572;2023-04-12T06:18:08;13.10;;;3.20;;
74335;SDS011;62755;-33.398;-70.572;2023-04-12T06:20:57;8.63;;;3.05;;
74335;SDS011;62755;-33.398;-70.572;2023-04-12T06:23:47;9.30;;;2.95;;
74335;SDS011;62755;-33.398;-70.572;2023-04-12T06:26:36;10.75;;;2.80;;
74335;SDS011;62755;-33.398;-70.572;2023-04-12T06:29:28;13.25;;;2.55;;
74335;SDS011;62755;-33.398;-70.572;2023-04-12T06:32:17;12.45;;;2.95;;
74335;SDS011;62755;-33.398;-70.572;2023-04-12T06:35:08;15.43;;;3.10;;
74335;SDS011;62755;-33.398;-70.572;2023-04-12T06:37:58;16.00;;;3.30;;
74335;SDS011;62755;-33.398;-70.572;2023-04-12T06:40:47;9.40;;;3.00;;
74335;SDS011;62755;-33.398;-70.572;2023-04-12T06:43:37;11.35;;;2.70;;
74335;SDS011;62755;-33.398;-70.572;2023-04-12T06:46:27;10.27;;;2.72;;
74335;SDS011;62755;-33.398;-70.572;2023-04-12T06:49:16;10.43;;;2.67;;
74335;SDS011;62755;-33.398;-70.572;2023-04-12T06:52:08;14.45;;;2.92;;
74335;SDS011;62755;-33.398;-70.572;2023-04-12T06:54:57;10.88;;;2.97;;
74335;SDS011;62755;-33.398;-70.572;2023-04-12T06:57:47;13.57;;;3.40;;
74335;SDS011;62755;-33.398;-70.572;2023-04-12T07:00:37;11.45;;;3.13;;
74335;SDS011;62755;-33.398;-70.572;2023-04-12T07:03:27;17.55;;;3.78;;
74335;SDS011;62755;-33.398;-70.572;2023-04-12T07:06:18;14.70;;;3.35;;
74335;SDS011;62755;-33.398;-70.572;2023-04-12T07:09:09;13.05;;;2.88;;
74335;SDS011;62755;-33.398;-70.572;2023-04-12T07:11:59;10.25;;;3.15;;
74335;SDS011;62755;-33.398;-70.572;2023-04-12T07:14:48;11.98;;;3.08;;
74335;SDS011;62755;-33.398;-70.572;2023-04-12T07:17:38;12.25;;;3.33;;
74335;SDS011;62755;-33.398;-70.572;2023-04-12T07:20:27;13.05;;;3.42;;
74335;SDS011;62755;-33.398;-70.572;2023-04-12T07:23:17;12.75;;;3.53;;
74335;SDS011;62755;-33.398;-70.572;2023-04-12T07:26:08;19.33;;;3.10;;
74335;SDS011;62755;-33.398;-70.572;2023-04-12T07:28:58;11.57;;;3.15;;
74335;SDS011;62755;-33.398;-70.572;2023-04-12T07:31:48;19.50;;;3.28;;
74335;SDS011;62755;-33.398;-70.572;2023-04-12T07:34:37;13.60;;;2.90;;
74335;SDS011;62755;-33.398;-70.572;2023-04-12T07:37:27;13.93;;;3.00;;
74335;SDS011;62755;-33.398;-70.572;2023-04-12T07:40:16;13.00;;;3.08;;
74335;SDS011;62755;-33.398;-70.572;2023-04-12T07:43:08;12.90;;;2.80;;
74335;SDS011;62755;-33.398;-70.572;2023-04-12T07:45:57;10.13;;;2.97;;
74335;SDS011;62755;-33.398;-70.572;2023-04-12T07:48:49;10.80;;;2.90;;
74335;SDS011;62755;-33.398;-70.572;2023-04-12T07:51:39;8.93;;;2.83;;
74335;SDS011;62755;-33.398;-70.572;2023-04-12T07:54:29;11.65;;;3.15;;
74335;SDS011;62755;-33.398;-70.572;2023-04-12T07:57:18;12.73;;;3.03;;
74335;SDS011;62755;-33.398;-70.572;2023-04-12T08:00:10;15.93;;;3.25;;
74335;SDS011;62755;-33.398;-70.572;2023-04-12T08:03:01;11.00;;;2.88;;
74335;SDS011;62755;-33.398;-70.572;2023-04-12T08:05:51;7.22;;;2.75;;
74335;SDS011;62755;-33.398;-70.572;2023-04-12T08:08:40;6.38;;;2.45;;
74335;SDS011;62755;-33.398;-70.572;2023-04-12T08:11:30;7.38;;;2.33;;
74335;SDS011;62755;-33.398;-70.572;2023-04-12T08:14:20;10.02;;;2.65;;
74335;SDS011;62755;-33.398;-70.572;2023-04-12T08:17:11;12.88;;;2.75;;
74335;SDS011;62755;-33.398;-70.572;2023-04-12T08:20:01;10.88;;;2.97;;
74335;SDS011;62755;-33.398;-70.572;2023-04-12T08:22:51;9.95;;;2.53;;
74335;SDS011;62755;-33.398;-70.572;2023-04-12T08:25:40;12.30;;;2.50;;
74335;SDS011;62755;-33.398;-70.572;2023-04-12T08:28:30;8.43;;;2.70;;
74335;SDS011;62755;-33.398;-70.572;2023-04-12T08:31:19;13.60;;;2.67;;
74335;SDS011;62755;-33.398;-70.572;2023-04-12T08:34:11;8.00;;;2.05;;
74335;SDS011;62755;-33.398;-70.572;2023-04-12T08:37:01;17.30;;;2.78;;
74335;SDS011;62755;-33.398;-70.572;2023-04-12T08:39:51;8.32;;;2.33;;
74335;SDS011;62755;-33.398;-70.572;2023-04-12T08:42:40;11.95;;;2.75;;
74335;SDS011;62755;-33.398;-70.572;2023-04-12T08:45:30;9.75;;;2.50;;
74335;SDS011;62755;-33.398;-70.572;2023-04-12T08:48:22;6.82;;;2.92;;
74335;SDS011;62755;-33.398;-70.572;2023-04-12T08:51:14;11.27;;;2.65;;
74335;SDS011;62755;-33.398;-70.572;2023-04-12T08:54:05;8.77;;;2.47;;
74335;SDS011;62755;-33.398;-70.572;2023-04-12T08:56:55;9.93;;;2.63;;
74335;SDS011;62755;-33.398;-70.572;2023-04-12T08:59:47;8.32;;;2.42;;
74335;SDS011;62755;-33.398;-70.572;2023-04-12T09:02:39;10.93;;;2.80;;
74335;SDS011;62755;-33.398;-70.572;2023-04-12T09:05:31;14.00;;;2.83;;
74335;SDS011;62755;-33.398;-70.572;2023-04-12T09:08:23;14.85;;;2.65;;
74335;SDS011;62755;-33.398;-70.572;2023-04-12T09:11:20;11.95;;;3.13;;
74335;SDS011;62755;-33.398;-70.572;2023-04-12T09:14:20;8.88;;;3.00;;
74335;SDS011;62755;-33.398;-70.572;2023-04-12T09:20:21;10.10;;;2.72;;
74335;SDS011;62755;-33.398;-70.572;2023-04-12T09:26:08;9.27;;;3.25;;
74335;SDS011;62755;-33.398;-70.572;2023-04-12T09:32:11;11.90;;;2.90;;
74335;SDS011;62755;-33.398;-70.572;2023-04-12T09:35:01;8.80;;;2.78;;
74335;SDS011;62755;-33.398;-70.572;2023-04-12T09:37:55;9.70;;;2.90;;
74335;SDS011;62755;-33.398;-70.572;2023-04-12T09:40:45;15.52;;;3.10;;
74335;SDS011;62755;-33.398;-70.572;2023-04-12T09:43:37;10.13;;;3.08;;
74335;SDS011;62755;-33.398;-70.572;2023-04-12T09:46:26;10.50;;;3.10;;
74335;SDS011;62755;-33.398;-70.572;2023-04-12T09:49:16;7.95;;;2.88;;
74335;SDS011;62755;-33.398;-70.572;2023-04-12T09:52:06;8.38;;;2.80;;
74335;SDS011;62755;-33.398;-70.572;2023-04-12T09:54:56;6.65;;;3.22;;
74335;SDS011;62755;-33.398;-70.572;2023-04-12T09:57:45;7.78;;;3.10;;
74335;SDS011;62755;-33.398;-70.572;2023-04-12T10:00:39;10.50;;;3.50;;
74335;SDS011;62755;-33.398;-70.572;2023-04-12T10:03:30;8.63;;;3.22;;
74335;SDS011;62755;-33.398;-70.572;2023-04-12T10:06:20;5.35;;;2.80;;
74335;SDS011;62755;-33.398;-70.572;2023-04-12T10:09:11;10.00;;;3.25;;
74335;SDS011;62755;-33.398;-70.572;2023-04-12T10:12:02;18.98;;;3.55;;
74335;SDS011;62755;-33.398;-70.572;2023-04-12T10:14:52;14.75;;;2.60;;
74335;SDS011;62755;-33.398;-70.572;2023-04-12T10:17:45;6.68;;;2.67;;
74335;SDS011;62755;-33.398;-70.572;2023-04-12T10:20:35;12.05;;;3.10;;
74335;SDS011;62755;-33.398;-70.572;2023-04-12T10:23:28;16.15;;;2.90;;
74335;SDS011;62755;-33.398;-70.572;2023-04-12T10:26:19;15.60;;;3.35;;
74335;SDS011;62755;-33.398;-70.572;2023-04-12T10:29:24;10.63;;;3.40;;
74335;SDS011;62755;-33.398;-70.572;2023-04-12T10:32:18;10.75;;;3.30;;
74335;SDS011;62755;-33.398;-70.572;2023-04-12T10:35:10;14.25;;;3.67;;
74335;SDS011;62755;-33.398;-70.572;2023-04-12T10:38:00;9.13;;;2.90;;
74335;SDS011;62755;-33.398;-70.572;2023-04-12T10:41:06;11.80;;;3.35;;
74335;SDS011;62755;-33.398;-70.572;2023-04-12T10:44:22;10.38;;;3.08;;
74335;SDS011;62755;-33.398;-70.572;2023-04-12T10:47:12;11.82;;;3.03;;
74335;SDS011;62755;-33.398;-70.572;2023-04-12T10:50:22;13.75;;;3.47;;
74335;SDS011;62755;-33.398;-70.572;2023-04-12T10:53:25;10.70;;;3.35;;
74335;SDS011;62755;-33.398;-70.572;2023-04-12T10:59:25;21.77;;;5.00;;
74335;SDS011;62755;-33.398;-70.572;2023-04-12T11:05:59;17.33;;;3.65;;
74335;SDS011;62755;-33.398;-70.572;2023-04-12T11:08:49;10.45;;;3.13;;
74335;SDS011;62755;-33.398;-70.572;2023-04-12T11:11:43;13.07;;;3.58;;
74335;SDS011;62755;-33.398;-70.572;2023-04-12T11:14:33;14.25;;;3.58;;
74335;SDS011;62755;-33.398;-70.572;2023-04-12T11:17:24;10.02;;;3.25;;
74335;SDS011;62755;-33.398;-70.572;2023-04-12T11:20:14;9.95;;;3.75;;
74335;SDS011;62755;-33.398;-70.572;2023-04-12T11:23:05;12.10;;;4.38;;
74335;SDS011;62755;-33.398;-70.572;2023-04-12T11:25:56;13.18;;;3.10;;
74335;SDS011;62755;-33.398;-70.572;2023-04-12T11:28:45;17.60;;;4.20;;
74335;SDS011;62755;-33.398;-70.572;2023-04-12T11:31:38;16.95;;;4.80;;
74335;SDS011;62755;-33.398;-70.572;2023-04-12T11:34:30;12.95;;;4.15;;
74335;SDS011;62755;-33.398;-70.572;2023-04-12T11:37:20;22.23;;;5.38;;
74335;SDS011;62755;-33.398;-70.572;2023-04-12T11:40:13;14.52;;;4.45;;
74335;SDS011;62755;-33.398;-70.572;2023-04-12T11:43:02;9.65;;;4.50;;
74335;SDS011;62755;-33.398;-70.572;2023-04-12T11:45:55;16.30;;;4.25;;
74335;SDS011;62755;-33.398;-70.572;2023-04-12T11:48:45;19.80;;;3.95;;
74335;SDS011;62755;-33.398;-70.572;2023-04-12T11:51:35;14.77;;;3.90;;
74335;SDS011;62755;-33.398;-70.572;2023-04-12T11:54:26;10.57;;;3.88;;
74335;SDS011;62755;-33.398;-70.572;2023-04-12T11:57:18;24.13;;;4.65;;
74335;SDS011;62755;-33.398;-70.572;2023-04-12T12:00:08;12.60;;;4.30;;
74335;SDS011;62755;-33.398;-70.572;2023-04-12T12:02:57;17.48;;;5.13;;
74335;SDS011;62755;-33.398;-70.572;2023-04-12T12:05:47;18.05;;;4.75;;
74335;SDS011;62755;-33.398;-70.572;2023-04-12T12:08:37;15.90;;;5.07;;
74335;SDS011;62755;-33.398;-70.572;2023-04-12T12:11:27;16.58;;;5.15;;
74335;SDS011;62755;-33.398;-70.572;2023-04-12T12:14:20;23.98;;;5.03;;
74335;SDS011;62755;-33.398;-70.572;2023-04-12T12:17:12;13.45;;;4.70;;
74335;SDS011;62755;-33.398;-70.572;2023-04-12T12:20:04;20.33;;;7.00;;
74335;SDS011;62755;-33.398;-70.572;2023-04-12T12:22:54;11.48;;;5.50;;
74335;SDS011;62755;-33.398;-70.572;2023-04-12T12:25:44;16.02;;;6.90;;
74335;SDS011;62755;-33.398;-70.572;2023-04-12T12:28:35;17.80;;;7.20;;
74335;SDS011;62755;-33.398;-70.572;2023-04-12T12:31:27;18.92;;;7.90;;
74335;SDS011;62755;-33.398;-70.572;2023-04-12T12:34:17;18.48;;;7.75;;
74335;SDS011;62755;-33.398;-70.572;2023-04-12T12:37:07;15.07;;;7.90;;
74335;SDS011;62755;-33.398;-70.572;2023-04-12T12:40:03;30.45;;;9.00;;
74335;SDS011;62755;-33.398;-70.572;2023-04-12T12:42:58;22.10;;;9.85;;
74335;SDS011;62755;-33.398;-70.572;2023-04-12T12:45:48;31.45;;;13.18;;
74335;SDS011;62755;-33.398;-70.572;2023-04-12T12:48:40;38.65;;;14.05;;
74335;SDS011;62755;-33.398;-70.572;2023-04-12T12:51:29;34.75;;;15.32;;
74335;SDS011;62755;-33.398;-70.572;2023-04-12T12:54:19;32.90;;;12.50;;
74335;SDS011;62755;-33.398;-70.572;2023-04-12T12:57:08;30.52;;;12.63;;
74335;SDS011;62755;-33.398;-70.572;2023-04-12T12:59:58;28.92;;;11.27;;
74335;SDS011;62755;-33.398;-70.572;2023-04-12T13:02:47;30.27;;;9.55;;
74335;SDS011;62755;-33.398;-70.572;2023-04-12T13:05:39;33.17;;;10.10;;
74335;SDS011;62755;-33.398;-70.572;2023-04-12T13:08:28;27.88;;;9.45;;
74335;SDS011;62755;-33.398;-70.572;2023-04-12T13:11:20;38.97;;;10.82;;
74335;SDS011;62755;-33.398;-70.572;2023-04-12T13:14:09;27.15;;;10.27;;
74335;SDS011;62755;-33.398;-70.572;2023-04-12T13:16:59;33.15;;;10.02;;
74335;SDS011;62755;-33.398;-70.572;2023-04-12T13:19:48;23.15;;;9.60;;
74335;SDS011;62755;-33.398;-70.572;2023-04-12T13:22:39;31.23;;;10.35;;
74335;SDS011;62755;-33.398;-70.572;2023-04-12T13:25:29;25.75;;;10.02;;
74335;SDS011;62755;-33.398;-70.572;2023-04-12T13:28:18;28.20;;;11.93;;
74335;SDS011;62755;-33.398;-70.572;2023-04-12T13:31:08;29.63;;;11.48;;
74335;SDS011;62755;-33.398;-70.572;2023-04-12T13:33:57;26.65;;;11.77;;
74335;SDS011;62755;-33.398;-70.572;2023-04-12T13:36:47;42.38;;;13.57;;
74335;SDS011;62755;-33.398;-70.572;2023-04-12T13:39:38;30.73;;;13.57;;
74335;SDS011;62755;-33.398;-70.572;2023-04-12T13:42:29;34.72;;;14.23;;
74335;SDS011;62755;-33.398;-70.572;2023-04-12T13:45:19;44.33;;;17.05;;
74335;SDS011;62755;-33.398;-70.572;2023-04-12T13:48:08;33.47;;;15.73;;
74335;SDS011;62755;-33.398;-70.572;2023-04-12T13:50:58;35.03;;;16.48;;
74335;SDS011;62755;-33.398;-70.572;2023-04-12T13:53:47;41.10;;;18.50;;
74335;SDS011;62755;-33.398;-70.572;2023-04-12T13:56:39;41.33;;;16.50;;
74335;SDS011;62755;-33.398;-70.572;2023-04-12T13:59:28;32.92;;;16.63;;
74335;SDS011;62755;-33.398;-70.572;2023-04-12T14:02:18;43.22;;;17.50;;
74335;SDS011;62755;-33.398;-70.572;2023-04-12T14:05:07;44.17;;;19.70;;
74335;SDS011;62755;-33.398;-70.572;2023-04-12T14:07:58;43.85;;;21.50;;
74335;SDS011;62755;-33.398;-70.572;2023-04-12T14:10:47;37.78;;;19.90;;
74335;SDS011;62755;-33.398;-70.572;2023-04-12T14:13:38;55.53;;;30.25;;
74335;SDS011;62755;-33.398;-70.572;2023-04-12T14:16:28;44.70;;;18.98;;
74335;SDS011;62755;-33.398;-70.572;2023-04-12T14:19:17;35.45;;;19.42;;
74335;SDS011;62755;-33.398;-70.572;2023-04-12T14:22:07;40.72;;;19.55;;
74335;SDS011;62755;-33.398;-70.572;2023-04-12T14:24:56;45.67;;;21.05;;
74335;SDS011;62755;-33.398;-70.572;2023-04-12T14:27:46;40.92;;;18.52;;
74335;SDS011;62755;-33.398;-70.572;2023-04-12T14:30:37;40.70;;;17.50;;
74335;SDS011;62755;-33.398;-70.572;2023-04-12T14:33:26;34.90;;;18.63;;
74335;SDS011;62755;-33.398;-70.572;2023-04-12T14:36:16;41.80;;;18.63;;
74335;SDS011;62755;-33.398;-70.572;2023-04-12T14:39:06;37.13;;;17.75;;
74335;SDS011;62755;-33.398;-70.572;2023-04-12T14:41:56;36.50;;;17.45;;
74335;SDS011;62755;-33.398;-70.572;2023-04-12T14:44:48;38.67;;;17.40;;
74335;SDS011;62755;-33.398;-70.572;2023-04-12T14:47:39;45.45;;;18.75;;
74335;SDS011;62755;-33.398;-70.572;2023-04-12T14:50:29;33.40;;;16.08;;
74335;SDS011;62755;-33.398;-70.572;2023-04-12T14:53:18;62.55;;;17.30;;
74335;SDS011;62755;-33.398;-70.572;2023-04-12T14:56:15;32.60;;;16.50;;
74335;SDS011;62755;-33.398;-70.572;2023-04-12T14:59:07;43.60;;;22.13;;
74335;SDS011;62755;-33.398;-70.572;2023-04-12T15:01:56;37.05;;;17.63;;
74335;SDS011;62755;-33.398;-70.572;2023-04-12T15:04:48;42.15;;;18.80;;
74335;SDS011;62755;-33.398;-70.572;2023-04-12T15:07:37;40.35;;;18.40;;
74335;SDS011;62755;-33.398;-70.572;2023-04-12T15:10:27;37.70;;;17.20;;
74335;SDS011;62755;-33.398;-70.572;2023-04-12T15:13:17;34.58;;;18.45;;
74335;SDS011;62755;-33.398;-70.572;2023-04-12T15:16:07;44.22;;;16.30;;
74335;SDS011;62755;-33.398;-70.572;2023-04-12T15:18:57;34.10;;;14.43;;
74335;SDS011;62755;-33.398;-70.572;2023-04-12T15:21:49;36.45;;;16.92;;
74335;SDS011;62755;-33.398;-70.572;2023-04-12T15:24:39;28.35;;;16.52;;
74335;SDS011;62755;-33.398;-70.572;2023-04-12T15:27:29;28.63;;;14.43;;
74335;SDS011;62755;-33.398;-70.572;2023-04-12T15:30:18;31.58;;;13.40;;
74335;SDS011;62755;-33.398;-70.572;2023-04-12T15:33:08;34.42;;;16.48;;
74335;SDS011;62755;-33.398;-70.572;2023-04-12T15:35:57;24.23;;;13.93;;
74335;SDS011;62755;-33.398;-70.572;2023-04-12T15:38:50;26.08;;;14.77;;
74335;SDS011;62755;-33.398;-70.572;2023-04-12T15:41:40;26.50;;;13.10;;
74335;SDS011;62755;-33.398;-70.572;2023-04-12T15:44:29;28.65;;;13.07;;
74335;SDS011;62755;-33.398;-70.572;2023-04-12T15:47:19;29.52;;;13.38;;
74335;SDS011;62755;-33.398;-70.572;2023-04-12T15:50:08;72.57;;;37.08;;
74335;SDS011;62755;-33.398;-70.572;2023-04-12T15:52:59;22.90;;;11.77;;
74335;SDS011;62755;-33.398;-70.572;2023-04-12T15:55:50;27.95;;;11.60;;
74335;SDS011;62755;-33.398;-70.572;2023-04-12T15:58:40;31.70;;;14.10;;
74335;SDS011;62755;-33.398;-70.572;2023-04-12T16:01:30;28.23;;;11.65;;
74335;SDS011;62755;-33.398;-70.572;2023-04-12T16:04:20;36.88;;;11.30;;
74335;SDS011;62755;-33.398;-70.572;2023-04-12T16:07:11;25.55;;;11.30;;
74335;SDS011;62755;-33.398;-70.572;2023-04-12T16:10:01;26.73;;;11.23;;
74335;SDS011;62755;-33.398;-70.572;2023-04-12T16:12:54;31.27;;;10.82;;
74335;SDS011;62755;-33.398;-70.572;2023-04-12T16:15:43;24.88;;;11.00;;
74335;SDS011;62755;-33.398;-70.572;2023-04-12T16:18:33;32.50;;;9.95;;
74335;SDS011;62755;-33.398;-70.572;2023-04-12T16:21:23;24.90;;;11.80;;
74335;SDS011;62755;-33.398;-70.572;2023-04-12T16:24:14;28.25;;;11.32;;
74335;SDS011;62755;-33.398;-70.572;2023-04-12T16:27:03;29.67;;;12.02;;